Terminal Aerodrome Forecast
Issued by NWS La Crosse, WI

Home | Current Version | Previous Version | Text Only | Print | Product List | Glossary On
Versions: 1 2 3 4 5 6 7 8 9 10 11 12 13 14 15 16 17 18 19 20 21 22 23 24 25 26 27 28 29 30 31 32 33 34 35 36 37 38 39 40 41 42 43 44 45 46 47
000
FTUS43 KARX 290658 AAA
TAFLSE
TAF AMD
KLSE 290658Z 2907/3006 34007KT P6SM VCSH SCT025 BKN035
     FM291000 35007KT P6SM BKN035
     FM291400 02006KT P6SM BKN050
     FM300000 04003KT P6SM SCT100=

USA.gov is the U.S. government's official web portal to all federal, state and local government web resources and services.